Millboro, VA (24460)

4:11 AM EDT on October 01, 2014 (GMT -0400)
Mountain Meadow Farm | Change Station
CLOSE
Current Station
Personal Weather Station
Location: Goshen, VA
Elevation: 1532 ft
Nearby Weather Stations

Elev 1532 ft 38.05 °N, 79.48 °W | Updated 13 minutes ago

Mostly Cloudy
Mostly Cloudy
55.4 °F
Feels Like 55.4 °F
N
0.0
Wind Variable Wind from West
Gusts 0.0 mph

Today
High -- | Low -- °F
--% Chance of Precip.
Yesterday
High -- | Low -- °F
Precip. -- in
7:14 AM 7:01 PM
Waxing Crescent, 45% visible
Pressure 29.99 in
Visibility 10.0 miles
Clouds Clear
Dew Point 54 °F
Humidity 95%
Rainfall 0.00 in
Snow Depth Not available.
UV 0 out of 12
Pollen 4.30 out of 12
Air Quality Not available.
Flu Activity Not available.
METAR KLWB 010735Z AUTO 00000KT 10SM CLR 11/09 A2999 RMK AO2 T01070092

More Conditions Fewer Conditions

Pressure 29.99 in
Visibility 10.0 miles
Clouds Clear
Dew Point 54 °F
Humidity 95%
Rainfall 0.00 in
Snow Depth Not available.
UV 0 out of 12
Pollen 4.30 out of 12
Air Quality Not available.
Flu Activity Not available.
METAR KLWB 010735Z AUTO 00000KT 10SM CLR 11/09 A2999 RMK AO2 T01070092

More Conditions Fewer Conditions

10-Day Weather Forecast

Almanac

Astronomy

Oct. 01, 2014 Rise Set
Actual Time 7:14 AM EDT 7:01 PM EDT
Civil Twilight 6:47 AM EDT 7:27 PM EDT
Nautical Twilight 6:17 AM EDT 7:58 PM EDT
Astronomical Twilight 5:46 AM EDT 8:29 PM EDT
Moon 2:09 PM EDT No Moon Set
Length of Visible Light 12h 39m
Length of Day
11h 47m
Tomorrow will be 2m 26s shorter.
Waxing Crescent, 45% of the Moon is Illuminated
Today
Waxing Crescent
Oct 1
First Quarter
Oct 8
Full
Oct 15
Last Quarter
Oct 23
New

Today's Extremes

State Highs State Lows

Community

WunderPhotos

Upload Photos

1,757,902 photos uploaded!

Nearby

Snow Depth

Station Depth Elevation
No new snow has been reported.

Earthquake Activity

City Distance Mag. Time & Date
No recent earthquake activity has been reported nearby.
Minimum magnitude displayed is 2.5.

Coastal Water Temperatures

Place Temperature
No Stations Reporting

Nearby Weather Stations